Time;durP1;ratioP1;P1;durP2;ratioP2;P2;SDS_P1;SDS_P2;PMS_P1;PMS_P2;Temp;Humidity;BMP_temperature;BMP_pressure;BME280_temperature;BME280_humidity;BME280_pressure;Samples;Min_cycle;Max_cycle;Signal;HPM_P1;HPM_P2
2021/06/12 00:01:01;;;;;;;7.35;5.95;;;16.10;99.90;;;;;;5075335;28;20024;-85
2021/06/12 00:03:27;;;;;;;6.50;5.90;;;16.10;99.90;;;;;;5059633;28;20029;-85
2021/06/12 00:05:55;;;;;;;7.75;5.90;;;16.10;99.90;;;;;;5076489;28;20086;-86
2021/06/12 00:08:23;;;;;;;6.57;5.25;;;16.10;99.90;;;;;;5058986;28;20051;-86
2021/06/12 00:10:49;;;;;;;9.25;5.90;;;16.00;99.90;;;;;;5076308;28;20090;-86
2021/06/12 00:13:18;;;;;;;6.32;5.55;;;16.00;99.90;;;;;;5076251;28;20046;-86
2021/06/12 00:15:45;;;;;;;10.00;8.27;;;16.00;99.90;;;;;;5076239;28;20017;-85
2021/06/12 00:18:15;;;;;;;10.20;9.20;;;16.00;99.90;;;;;;5076339;28;20024;-85
2021/06/12 00:20:46;;;;;;;7.10;6.40;;;15.90;99.90;;;;;;5058630;28;20375;-86
2021/06/12 00:23:22;;;;;;;14.75;13.18;;;15.90;99.90;;;;;;5076182;28;20032;-85
2021/06/12 00:25:51;;;;;;;11.75;9.95;;;15.90;99.90;;;;;;5059052;28;20368;-85
2021/06/12 00:28:19;;;;;;;20.65;17.65;;;15.90;99.90;;;;;;5076406;28;20024;-85
2021/06/12 00:30:54;;;;;;;23.20;20.52;;;15.90;99.90;;;;;;5075935;28;20067;-86
2021/06/12 00:33:29;;;;;;;15.77;14.07;;;15.90;99.90;;;;;;5075164;28;20095;-85
2021/06/12 00:35:59;;;;;;;15.13;12.85;;;15.90;99.90;;;;;;5075920;28;20027;-85
2021/06/12 00:38:53;;;;;;;14.73;13.20;;;15.90;99.90;;;;;;5074620;28;20367;-85
2021/06/12 00:41:23;;;;;;;11.85;9.23;;;15.90;99.90;;;;;;5058239;28;20028;-85
2021/06/12 00:43:53;;;;;;;10.20;8.55;;;15.90;99.90;;;;;;5058313;28;20043;-85
2021/06/12 00:46:19;;;;;;;9.57;7.13;;;15.90;99.90;;;;;;5074584;28;20158;-85
2021/06/12 00:48:46;;;;;;;8.50;7.10;;;15.90;99.90;;;;;;5074578;28;20103;-85
2021/06/12 00:51:21;;;;;;;7.82;7.03;;;15.80;99.90;;;;;;5075383;28;20044;-85
2021/06/12 00:53:49;;;;;;;6.93;5.50;;;15.80;99.90;;;;;;5074361;28;20111;-85
2021/06/12 00:56:27;;;;;;;7.88;6.13;;;15.80;99.90;;;;;;5074757;28;20032;-86
2021/06/12 00:58:53;;;;;;;6.18;5.57;;;15.80;99.90;;;;;;5074343;28;20158;-86
2021/06/12 01:01:21;;;;;;;5.90;5.20;;;15.70;99.90;;;;;;5074246;28;20112;-86
2021/06/12 01:03:57;;;;;;;6.68;5.30;;;15.70;99.90;;;;;;5057443;28;20436;-85
2021/06/12 01:06:23;;;;;;;6.47;5.68;;;15.80;99.90;;;;;;5075646;28;20032;-85
2021/06/12 01:08:52;;;;;;;6.65;5.82;;;15.80;99.90;;;;;;5073966;28;20039;-85
2021/06/12 01:11:18;;;;;;;5.90;5.13;;;15.70;99.90;;;;;;5074022;28;20098;-85
2021/06/12 01:14:08;;;;;;;5.88;5.30;;;15.70;99.90;;;;;;5057483;28;20470;-85
2021/06/12 01:17:01;;;;;;;6.18;5.60;;;15.70;99.90;;;;;;5073828;28;20025;-85
2021/06/12 01:19:36;;;;;;;7.78;6.15;;;15.70;99.90;;;;;;5073810;28;20029;-85
2021/06/12 01:22:23;;;;;;;6.35;5.75;;;15.70;99.90;;;;;;5074891;28;20103;-85
2021/06/12 01:25:28;;;;;;;7.03;5.80;;;15.70;99.90;;;;;;5074992;28;20017;-85
2021/06/12 01:28:10;;;;;;;5.80;5.28;;;15.70;99.90;;;;;;5074179;28;20414;-85
2021/06/12 01:30:42;;;;;;;6.63;5.80;;;15.70;99.90;;;;;;5073551;28;20410;-85
2021/06/12 01:33:13;;;;;;;7.00;5.57;;;15.60;99.90;;;;;;5073524;28;20031;-85
2021/06/12 01:36:04;;;;;;;6.75;5.68;;;15.70;99.90;;;;;;5057487;28;20033;-85
2021/06/12 01:38:43;;;;;;;8.80;6.40;;;15.60;99.90;;;;;;5073513;28;20028;-85
2021/06/12 01:41:12;;;;;;;9.75;6.35;;;15.60;99.90;;;;;;5074856;28;20028;-85
2021/06/12 01:43:42;;;;;;;7.55;5.88;;;15.60;99.90;;;;;;5073340;28;20029;-85
2021/06/12 01:46:16;;;;;;;7.63;6.50;;;15.60;99.90;;;;;;5057101;28;20470;-85
2021/06/12 01:48:45;;;;;;;6.85;6.18;;;15.50;99.90;;;;;;5073606;28;20032;-85
2021/06/12 01:51:15;;;;;;;7.37;5.73;;;15.50;99.90;;;;;;5072960;28;20053;-85
2021/06/12 01:53:45;;;;;;;6.38;5.75;;;15.50;99.90;;;;;;5056266;28;20024;-85
2021/06/12 01:56:23;;;;;;;7.35;6.35;;;15.60;99.90;;;;;;5073126;28;20023;-85
2021/06/12 01:58:52;;;;;;;8.68;7.78;;;15.60;99.90;;;;;;5072982;28;20421;-85
2021/06/12 02:01:24;;;;;;;7.80;7.00;;;15.60;99.90;;;;;;5072942;28;20029;-85
2021/06/12 02:03:55;;;;;;;7.78;7.00;;;15.60;99.90;;;;;;5073677;28;20058;-85
2021/06/12 02:06:29;;;;;;;6.22;5.63;;;15.70;99.90;;;;;;5073086;28;20029;-85
2021/06/12 02:08:59;;;;;;;7.43;6.30;;;15.70;99.90;;;;;;5072800;28;20036;-85
2021/06/12 02:11:31;;;;;;;7.18;6.05;;;15.80;99.90;;;;;;5073120;28;20036;-85
2021/06/12 02:14:00;;;;;;;6.38;5.78;;;15.80;99.90;;;;;;5072752;28;20028;-85
2021/06/12 02:16:48;;;;;;;6.07;5.47;;;15.80;99.90;;;;;;5072928;28;20032;-85
2021/06/12 02:19:13;;;;;;;6.45;5.85;;;15.80;99.90;;;;;;5073994;28;20115;-85
2021/06/12 02:21:40;;;;;;;6.15;5.38;;;15.80;99.90;;;;;;5072655;28;20039;-84
2021/06/12 02:24:08;;;;;;;8.98;5.70;;;15.80;99.90;;;;;;5072440;28;20420;-85
2021/06/12 02:26:47;;;;;;;6.00;5.43;;;15.90;99.90;;;;;;5073768;28;20029;-85
2021/06/12 02:29:18;;;;;;;9.60;7.95;;;15.90;99.90;;;;;;5057185;28;20417;-85
2021/06/12 02:31:53;;;;;;;9.85;7.00;;;15.90;99.90;;;;;;5056272;28;20119;-85
2021/06/12 02:34:18;;;;;;;8.13;6.53;;;15.90;99.90;;;;;;5056068;28;20031;-85
2021/06/12 02:36:45;;;;;;;7.28;6.40;;;15.90;99.90;;;;;;5074020;28;20024;-85
2021/06/12 02:39:12;;;;;;;6.90;6.15;;;15.90;99.90;;;;;;5055890;28;20111;-85
2021/06/12 02:41:43;;;;;;;7.15;6.47;;;16.00;99.90;;;;;;5073927;28;20036;-85
2021/06/12 02:44:09;;;;;;;;;;;16.00;99.90;;;;;;5073957;28;20051;-85
2021/06/12 02:46:46;;;;;;;7.55;6.53;;;16.00;99.90;;;;;;5072546;28;20281;-85
2021/06/12 02:49:19;;;;;;;8.25;7.00;;;15.90;99.90;;;;;;5072420;28;20454;-85
2021/06/12 02:52:03;;;;;;;8.27;7.53;;;16.00;99.90;;;;;;5056272;28;20479;-85
2021/06/12 02:54:31;;;;;;;7.55;6.85;;;16.00;99.90;;;;;;5072641;28;20025;-85
2021/06/12 02:57:00;;;;;;;7.30;6.60;;;16.10;99.90;;;;;;5073559;28;20424;-85
2021/06/12 02:59:32;;;;;;;6.38;5.88;;;16.10;99.90;;;;;;5072642;28;20039;-85
2021/06/12 03:01:59;;;;;;;7.10;6.40;;;16.20;99.90;;;;;;5073528;28;20043;-85
2021/06/12 03:04:26;;;;;;;7.93;6.25;;;16.20;99.90;;;;;;5072192;28;20119;-85
2021/06/12 03:06:55;;;;;;;8.00;7.20;;;16.20;99.90;;;;;;5072237;28;20043;-86
2021/06/12 03:09:28;;;;;;;7.93;6.80;;;16.20;99.90;;;;;;5072034;28;20033;-86
2021/06/12 03:12:05;;;;;;;8.35;7.55;;;16.30;99.90;;;;;;5073778;28;20107;-85
2021/06/12 03:14:43;;;;;;;9.60;7.80;;;16.30;99.90;;;;;;5077524;28;20097;-85
2021/06/12 03:17:19;;;;;;;9.80;7.72;;;16.40;99.90;;;;;;5076196;28;20029;-85
2021/06/12 03:19:46;;;;;;;8.32;7.40;;;16.40;99.90;;;;;;5060767;28;20025;-85
2021/06/12 03:22:15;;;;;;;7.95;7.15;;;16.50;99.90;;;;;;5075732;28;20016;-85
2021/06/12 03:24:53;;;;;;;8.15;7.30;;;16.50;99.90;;;;;;5076471;28;20044;-85
2021/06/12 03:27:24;;;;;;;7.80;6.47;;;16.60;99.90;;;;;;5060897;28;20116;-86
2021/06/12 03:29:53;;;;;;;8.05;6.43;;;16.60;99.90;;;;;;5076888;28;20671;-85
2021/06/12 03:32:24;;;;;;;7.68;6.60;;;16.70;99.90;;;;;;5075896;28;20024;-85
2021/06/12 03:34:52;;;;;;;6.97;6.38;;;16.70;99.90;;;;;;5075951;28;20017;-86
2021/06/12 03:37:18;;;;;;;7.30;6.60;;;16.80;99.90;;;;;;5077112;28;20953;-85
2021/06/12 03:39:54;;;;;;;7.57;6.88;;;16.80;99.90;;;;;;5076825;28;20117;-86
2021/06/12 03:42:23;;;;;;;7.18;6.47;;;16.90;99.90;;;;;;5060193;28;20021;-85
2021/06/12 03:44:58;;;;;;;7.10;6.07;;;16.90;99.90;;;;;;5059601;28;20094;-86
2021/06/12 03:47:25;;;;;;;8.30;6.75;;;17.00;99.90;;;;;;5076878;28;20029;-86
2021/06/12 03:49:58;;;;;;;12.65;6.30;;;17.10;99.90;;;;;;5076787;28;20056;-86
2021/06/12 03:52:27;;;;;;;7.50;6.70;;;17.10;99.90;;;;;;5075483;28;20031;-86
2021/06/12 03:54:56;;;;;;;7.32;6.63;;;17.10;99.90;;;;;;5075420;28;20028;-86
2021/06/12 03:57:26;;;;;;;8.85;6.45;;;17.20;99.90;;;;;;5075395;28;20025;-85
2021/06/12 04:00:06;;;;;;;7.47;6.22;;;17.20;99.90;;;;;;5075388;28;20028;-86
2021/06/12 04:02:35;;;;;;;6.50;5.88;;;17.30;99.90;;;;;;5075744;28;20043;-86
2021/06/12 04:05:06;;;;;;;7.35;6.00;;;17.30;99.90;;;;;;5075238;28;20024;-87
2021/06/12 04:07:47;;;;;;;8.18;6.20;;;17.40;99.90;;;;;;5075287;28;20430;-87
2021/06/12 04:10:29;;;;;;;6.97;6.28;;;17.50;99.90;;;;;;5075395;28;20024;-86
2021/06/12 04:13:02;;;;;;;6.38;5.65;;;17.60;99.90;;;;;;5060082;28;20040;-87
2021/06/12 04:15:32;;;;;;;6.65;6.05;;;17.70;99.90;;;;;;5058786;28;20123;-86
2021/06/12 04:18:07;;;;;;;6.88;6.18;;;17.70;99.90;;;;;;5075637;28;20024;-87
2021/06/12 04:20:42;;;;;;;6.55;5.95;;;17.80;99.90;;;;;;5059917;28;20037;-87
2021/06/12 04:23:32;;;;;;;7.05;6.45;;;17.90;99.90;;;;;;5075896;28;20047;-87
2021/06/12 04:26:03;;;;;;;6.72;6.13;;;18.00;99.90;;;;;;5075463;28;20028;-87
2021/06/12 04:28:38;;;;;;;6.60;5.78;;;18.00;99.90;;;;;;5075149;28;20020;-87
2021/06/12 04:31:25;;;;;;;7.05;5.90;;;18.10;99.90;;;;;;5075317;28;20032;-87
2021/06/12 04:33:53;;;;;;;6.65;6.05;;;18.20;99.90;;;;;;5076343;28;20466;-88
2021/06/12 04:36:21;;;;;;;6.90;6.20;;;18.30;99.90;;;;;;5074938;28;20090;-87
2021/06/12 04:38:54;;;;;;;7.22;5.80;;;18.30;99.90;;;;;;5075464;28;20442;-88
2021/06/12 04:41:32;;;;;;;;;;;;;;;;;;;;;
2021/06/12 04:44:01;;;;;;;6.20;5.60;;;18.40;99.90;;;;;;5075449;28;20042;-87
2021/06/12 04:46:29;;;;;;;10.70;6.47;;;18.50;99.90;;;;;;5074945;28;20032;-87
2021/06/12 04:48:55;;;;;;;6.07;5.47;;;18.60;99.90;;;;;;5074202;28;20111;-87
2021/06/12 04:51:23;;;;;;;6.55;5.93;;;18.70;99.90;;;;;;5073575;28;20136;-87
2021/06/12 04:53:49;;;;;;;6.80;6.10;;;18.70;99.90;;;;;;5074991;28;20028;-88
2021/06/12 04:56:23;;;;;;;5.82;5.30;;;18.70;99.90;;;;;;5076486;28;20024;-88
2021/06/12 04:58:57;;;;;;;6.65;5.47;;;18.80;99.80;;;;;;5074946;28;20020;-87
2021/06/12 05:01:33;;;;;;;6.25;5.65;;;18.80;99.90;;;;;;5059378;28;20102;-90
2021/06/12 05:04:01;;;;;;;6.30;5.70;;;18.90;99.80;;;;;;5075978;28;20096;-91
2021/06/12 05:06:32;;;;;;;7.00;5.72;;;18.90;99.80;;;;;;5074739;28;20052;-89
2021/06/12 05:08:58;;;;;;;6.40;5.80;;;18.90;99.90;;;;;;5074908;28;20032;-91
2021/06/12 05:11:24;;;;;;;6.40;5.65;;;19.00;99.90;;;;;;5074622;28;20032;-89
2021/06/12 05:13:51;;;;;;;7.43;5.28;;;19.10;99.60;;;;;;5075633;28;20024;-88
2021/06/12 05:16:16;;;;;;;4.93;4.50;;;19.20;99.50;;;;;;5074343;28;20032;-89
2021/06/12 05:18:44;;;;;;;5.25;4.75;;;19.30;99.30;;;;;;5057836;28;20032;-89
2021/06/12 05:21:12;;;;;;;7.53;4.90;;;19.30;98.60;;;;;;5074152;28;20028;-88
2021/06/12 05:23:38;;;;;;;4.88;4.35;;;19.40;98.70;;;;;;5091315;28;20077;-88
2021/06/12 05:26:05;;;;;;;9.05;5.47;;;19.40;98.90;;;;;;5091123;28;20025;-87
2021/06/12 05:28:34;;;;;;;5.00;4.60;;;19.40;98.50;;;;;;5084605;28;20032;-88
2021/06/12 05:31:00;;;;;;;5.40;4.90;;;19.50;98.80;;;;;;5053984;28;20025;-88
2021/06/12 05:33:30;;;;;;;5.57;4.38;;;19.50;98.60;;;;;;5055586;28;20100;-88
2021/06/12 05:35:56;;;;;;;6.53;4.50;;;19.50;98.30;;;;;;5054341;28;20095;-88
2021/06/12 05:38:33;;;;;;;4.82;4.43;;;19.60;98.10;;;;;;5053921;28;20030;-89
2021/06/12 05:40:59;;;;;;;5.35;4.85;;;19.60;98.40;;;;;;5055225;28;20062;-89
2021/06/12 05:43:25;;;;;;;4.70;4.30;;;19.70;98.60;;;;;;5053988;28;20021;-89
2021/06/12 05:45:53;;;;;;;6.88;5.00;;;19.70;98.60;;;;;;5053824;28;20467;-88
2021/06/12 05:48:25;;;;;;;5.30;4.68;;;19.70;98.40;;;;;;5053774;28;20017;-90
2021/06/12 05:50:56;;;;;;;6.22;4.50;;;19.80;98.10;;;;;;5054796;28;20053;-88
2021/06/12 05:53:21;;;;;;;4.75;4.32;;;19.80;98.40;;;;;;5053886;28;20025;-90
2021/06/12 05:55:52;;;;;;;5.55;4.22;;;19.90;98.10;;;;;;5053793;28;20387;-91
2021/06/12 05:58:18;;;;;;;5.15;4.28;;;19.80;97.90;;;;;;5062372;28;20031;-88
2021/06/12 06:00:54;;;;;;;;;;;;;;;;;;;;;
2021/06/12 06:03:24;;;;;;;7.03;4.30;;;19.80;97.40;;;;;;5075257;28;20047;-90
2021/06/12 06:06:01;;;;;;;;;;;19.80;97.90;;;;;;5091157;28;20046;-88
2021/06/12 06:08:37;;;;;;;5.13;4.20;;;19.90;98.00;;;;;;5073724;28;19995;-88
2021/06/12 06:11:08;;;;;;;4.93;4.28;;;19.90;97.70;;;;;;5074792;28;20024;-88
2021/06/12 06:13:45;;;;;;;6.22;4.43;;;19.90;97.40;;;;;;5074713;28;20021;-89
2021/06/12 06:16:15;;;;;;;5.55;4.20;;;20.00;97.40;;;;;;5074650;28;20040;-89
2021/06/12 06:18:40;;;;;;;5.32;4.30;;;20.00;97.40;;;;;;5056879;28;20025;-87
2021/06/12 06:21:10;;;;;;;6.13;4.30;;;20.00;97.20;;;;;;5089808;28;20138;-87
2021/06/12 06:23:38;;;;;;;4.50;4.00;;;20.00;97.00;;;;;;5090426;28;20036;-88
2021/06/12 06:26:11;;;;;;;8.07;4.53;;;20.00;96.50;;;;;;5089501;28;20036;-88
2021/06/12 06:28:41;;;;;;;4.63;3.83;;;20.10;97.20;;;;;;5089602;28;20493;-87
2021/06/12 06:31:07;;;;;;;7.43;4.13;;;20.10;97.10;;;;;;5089823;28;20050;-86
2021/06/12 06:33:36;;;;;;;4.57;4.18;;;20.30;97.00;;;;;;5089664;28;20482;-84
2021/06/12 06:36:04;;;;;;;4.20;3.88;;;20.30;96.20;;;;;;5073671;28;20393;-87
2021/06/12 06:38:46;;;;;;;6.20;4.25;;;20.20;96.30;;;;;;5074148;28;20024;-89
2021/06/12 06:41:14;;;;;;;5.45;3.97;;;20.30;96.50;;;;;;5074096;28;20409;-87
2021/06/12 06:43:47;;;;;;;4.75;3.60;;;20.40;96.80;;;;;;5074246;28;20099;-87
2021/06/12 06:46:13;;;;;;;4.80;4.28;;;20.50;96.90;;;;;;5089269;28;20040;-87
2021/06/12 06:48:39;;;;;;;4.65;4.18;;;20.60;96.60;;;;;;5073797;28;20143;-87
2021/06/12 06:51:05;;;;;;;5.80;4.10;;;20.80;96.30;;;;;;5073254;28;20045;-86
2021/06/12 06:53:33;;;;;;;6.20;4.07;;;20.80;96.30;;;;;;5073934;28;20027;-87
2021/06/12 06:56:06;;;;;;;5.00;3.95;;;20.80;96.10;;;;;;5073824;28;20019;-88
2021/06/12 06:58:32;;;;;;;5.03;3.90;;;20.90;95.60;;;;;;5089737;28;20479;-88
2021/06/12 07:00:58;;;;;;;5.28;3.97;;;20.80;95.70;;;;;;5089666;28;20123;-89
2021/06/12 07:03:25;;;;;;;3.90;3.58;;;20.90;95.70;;;;;;5074085;28;20059;-88
2021/06/12 07:05:54;;;;;;;4.15;3.78;;;20.90;95.20;;;;;;5089500;28;20765;-91
2021/06/12 07:08:22;;;;;;;3.60;3.30;;;20.90;94.90;;;;;;5072516;28;20071;-92
2021/06/12 07:10:49;;;;;;;3.85;3.58;;;20.90;95.20;;;;;;5089474;28;20025;-86
2021/06/12 07:13:24;;;;;;;3.40;3.10;;;20.90;95.10;;;;;;5089204;28;20070;-87
2021/06/12 07:15:52;;;;;;;4.22;3.50;;;21.00;95.30;;;;;;5090640;28;20021;-91
2021/06/12 07:18:18;;;;;;;8.40;5.03;;;21.10;94.80;;;;;;5089642;28;20025;-88
2021/06/12 07:20:47;;;;;;;6.28;5.63;;;21.10;94.40;;;;;;5090226;28;20024;-95
2021/06/12 07:23:18;;;;;;;4.03;3.67;;;21.10;94.20;;;;;;5090426;28;20118;-94
2021/06/12 07:25:48;;;;;;;5.15;3.47;;;21.20;94.20;;;;;;5090656;28;20106;-96
2021/06/12 07:28:14;;;;;;;;;;;21.20;93.90;;;;;;5090037;28;20078;-90
2021/06/12 07:30:42;;;;;;;6.00;3.45;;;21.20;94.20;;;;;;5072797;28;19995;-92
2021/06/12 07:33:09;;;;;;;3.67;3.38;;;21.30;94.10;;;;;;5074311;28;20478;-92
2021/06/12 07:35:35;;;;;;;4.32;2.90;;;21.40;94.10;;;;;;5089787;28;20107;-93
2021/06/12 07:38:10;;;;;;;4.00;3.10;;;21.50;93.90;;;;;;5089282;28;20474;-90
2021/06/12 07:40:36;;;;;;;4.15;3.40;;;21.50;94.00;;;;;;5089530;28;20086;-91
2021/06/12 07:43:02;;;;;;;3.60;3.30;;;21.50;93.60;;;;;;5072485;28;20082;-90
2021/06/12 07:45:28;;;;;;;4.07;3.08;;;21.50;94.00;;;;;;5089477;28;20453;-96
2021/06/12 07:48:00;;;;;;;4.70;2.97;;;21.50;93.10;;;;;;5089589;28;20024;-92
2021/06/12 07:50:26;;;;;;;7.18;3.03;;;21.40;93.40;;;;;;5089266;28;20064;-96
2021/06/12 07:52:57;;;;;;;3.30;3.00;;;21.50;93.50;;;;;;5089461;28;20402;-87
2021/06/12 07:55:36;;;;;;;6.57;3.45;;;21.60;93.30;;;;;;5089265;28;20024;-90
2021/06/12 07:58:02;;;;;;;3.40;3.10;;;21.60;93.10;;;;;;5090847;28;20032;-90
2021/06/12 08:00:29;;;;;;;3.75;3.35;;;21.70;93.10;;;;;;5092844;28;20020;-83
2021/06/12 08:02:57;;;;;;;3.28;3.00;;;21.70;93.50;;;;;;5077009;28;20020;-87
2021/06/12 08:05:26;;;;;;;3.15;2.85;;;21.80;93.20;;;;;;5076921;28;20029;-88
2021/06/12 08:07:54;;;;;;;3.38;3.08;;;21.90;92.80;;;;;;5076801;28;20477;-88
2021/06/12 08:10:21;;;;;;;3.53;3.08;;;22.00;92.40;;;;;;5080987;28;20107;-94
2021/06/12 08:12:47;;;;;;;4.38;3.13;;;22.00;92.70;;;;;;5076562;28;20031;-90
2021/06/12 08:15:15;;;;;;;3.10;2.80;;;22.10;92.60;;;;;;5076828;28;20032;-91
2021/06/12 08:17:43;;;;;;;2.83;2.58;;;22.10;92.20;;;;;;5075849;28;20029;-90
2021/06/12 08:20:13;;;;;;;2.63;2.42;;;22.00;91.30;;;;;;5076633;28;20524;-90
2021/06/12 08:22:41;;;;;;;2.90;2.70;;;22.10;91.80;;;;;;5076736;28;20040;-89
2021/06/12 08:25:09;;;;;;;2.90;2.70;;;22.10;92.00;;;;;;5092243;28;20025;-89
2021/06/12 08:27:35;;;;;;;2.88;2.63;;;22.10;92.00;;;;;;5076452;28;20099;-90
2021/06/12 08:30:13;;;;;;;3.20;2.90;;;22.10;92.30;;;;;;5075711;28;20032;-88
2021/06/12 08:32:52;;;;;;;3.45;2.90;;;22.20;92.80;;;;;;5092168;28;20021;-88
2021/06/12 08:35:24;;;;;;;3.13;2.83;;;22.30;91.90;;;;;;5076956;28;20472;-91
2021/06/12 08:37:50;;;;;;;4.03;3.22;;;22.30;91.50;;;;;;5092538;28;20021;-90
2021/06/12 08:40:17;;;;;;;3.10;2.90;;;22.30;91.70;;;;;;5075529;28;20039;-90
2021/06/12 08:42:47;;;;;;;2.70;2.50;;;22.40;92.00;;;;;;5092198;28;20235;-90
2021/06/12 08:45:13;;;;;;;2.97;2.67;;;22.50;91.70;;;;;;5092255;28;20028;-91
2021/06/12 08:47:40;;;;;;;2.47;2.28;;;22.60;91.60;;;;;;5076308;28;20024;-90
2021/06/12 08:50:08;;;;;;;4.22;3.10;;;22.80;91.30;;;;;;5091296;28;20049;-92
2021/06/12 08:52:38;;;;;;;3.10;2.80;;;22.80;91.10;;;;;;5091817;28;20025;-88
2021/06/12 08:55:09;;;;;;;2.90;2.60;;;22.80;91.30;;;;;;5091380;28;20078;-89
2021/06/12 08:57:38;;;;;;;2.70;2.50;;;22.90;90.80;;;;;;5091402;28;20373;-86
2021/06/12 09:00:19;;;;;;;3.30;3.00;;;22.90;90.70;;;;;;5074645;28;20029;-88
2021/06/12 09:03:05;;;;;;;3.70;2.63;;;22.90;90.00;;;;;;5091468;28;20466;-87
2021/06/12 09:05:48;;;;;;;3.00;2.70;;;22.90;90.70;;;;;;5090955;28;20029;-86
2021/06/12 09:08:18;;;;;;;2.50;2.30;;;22.90;91.20;;;;;;5075366;28;20036;-90
2021/06/12 09:10:53;;;;;;;2.72;2.53;;;22.80;90.80;;;;;;5091285;28;20074;-89
2021/06/12 09:13:40;;;;;;;2.83;2.63;;;22.80;91.20;;;;;;5091116;28;20025;-93
2021/06/12 09:16:20;;;;;;;2.78;2.58;;;22.80;90.00;;;;;;5091255;28;20035;-88
2021/06/12 09:18:47;;;;;;;4.57;2.95;;;22.80;90.40;;;;;;5091616;28;20047;-91
2021/06/12 09:21:26;;;;;;;2.50;2.30;;;22.80;90.30;;;;;;5089207;28;20476;-89
2021/06/12 09:23:58;;;;;;;5.22;2.40;;;22.90;87.70;;;;;;5094405;28;20074;-88
2021/06/12 09:26:39;;;;;;;2.90;2.60;;;22.90;88.10;;;;;;5077302;28;20040;-87
2021/06/12 09:29:05;;;;;;;3.30;2.45;;;22.90;87.00;;;;;;5077230;28;20039;-88
2021/06/12 09:31:31;;;;;;;2.90;2.70;;;22.90;87.50;;;;;;5093827;28;20020;-84
2021/06/12 09:33:56;;;;;;;2.45;2.30;;;22.90;88.20;;;;;;5094959;28;20039;-88
2021/06/12 09:36:36;;;;;;;3.42;2.58;;;23.00;89.00;;;;;;5095077;28;20195;-86
2021/06/12 09:39:25;;;;;;;2.97;2.50;;;23.00;87.30;;;;;;5094131;28;20051;-87
2021/06/12 09:41:53;;;;;;;3.30;2.72;;;23.10;87.60;;;;;;5090916;28;20024;-88
2021/06/12 09:44:52;;;;;;;2.85;2.65;;;23.10;88.00;;;;;;5077178;28;20178;-88
2021/06/12 09:47:20;;;;;;;3.08;2.75;;;23.20;89.00;;;;;;5089573;28;20168;-87
2021/06/12 09:49:46;;;;;;;2.95;2.75;;;23.20;87.90;;;;;;5092793;28;20063;-87
2021/06/12 09:52:15;;;;;;;3.78;2.90;;;23.20;88.70;;;;;;5094952;28;20052;-88
2021/06/12 09:54:51;;;;;;;3.15;2.53;;;23.30;88.00;;;;;;5093045;28;20024;-87
2021/06/12 09:57:20;;;;;;;2.72;2.53;;;23.20;88.90;;;;;;5093955;28;20049;-84
2021/06/12 09:59:48;;;;;;;3.10;2.80;;;23.20;88.00;;;;;;5093436;28;20024;-87
2021/06/12 10:02:40;;;;;;;4.20;3.10;;;23.20;88.20;;;;;;5094598;28;20508;-88
2021/06/12 10:05:12;;;;;;;3.30;2.80;;;23.20;87.40;;;;;;5093075;28;20024;-86
2021/06/12 10:07:43;;;;;;;3.33;2.67;;;23.20;87.80;;;;;;5093470;28;20028;-88
2021/06/12 10:10:14;;;;;;;3.30;3.00;;;23.10;88.30;;;;;;5094298;28;20044;-87
2021/06/12 10:12:42;;;;;;;3.55;3.08;;;23.10;87.80;;;;;;5093094;28;20081;-85
2021/06/12 10:15:12;;;;;;;3.50;3.20;;;23.20;87.00;;;;;;5094482;28;20077;-86
2021/06/12 10:17:53;;;;;;;4.93;3.58;;;23.20;87.90;;;;;;5094386;28;20470;-92
2021/06/12 10:20:23;;;;;;;5.68;3.13;;;23.40;88.10;;;;;;5092600;28;20031;-86
2021/06/12 10:22:51;;;;;;;3.47;3.17;;;23.40;88.30;;;;;;5075960;28;20062;-87
2021/06/12 10:25:19;;;;;;;3.75;3.13;;;23.40;88.10;;;;;;5093103;28;20062;-88
2021/06/12 10:27:45;;;;;;;3.10;2.80;;;23.40;88.40;;;;;;5094090;28;20024;-84
2021/06/12 10:30:17;;;;;;;4.45;3.22;;;23.40;87.40;;;;;;5092918;28;20491;-86
2021/06/12 10:32:58;;;;;;;3.63;3.33;;;23.40;87.20;;;;;;5094075;28;20024;-86
2021/06/12 10:35:28;;;;;;;3.30;3.00;;;23.40;88.00;;;;;;5094235;28;20024;-89
2021/06/12 10:38:16;;;;;;;2.67;2.47;;;23.30;85.40;;;;;;5093188;28;20358;-87
2021/06/12 10:40:48;;;;;;;5.07;2.58;;;23.30;85.10;;;;;;5092794;28;20098;-88
2021/06/12 10:43:15;;;;;;;3.17;2.25;;;23.30;83.50;;;;;;5092469;28;20473;-87
2021/06/12 10:45:46;;;;;;;5.05;2.50;;;23.40;83.50;;;;;;5094265;28;20024;-85
2021/06/12 10:48:36;;;;;;;3.15;2.90;;;23.50;82.10;;;;;;5093705;28;20369;-86
2021/06/12 10:51:04;;;;;;;2.92;2.60;;;23.60;83.20;;;;;;5092064;28;20048;-85
2021/06/12 10:53:33;;;;;;;2.78;2.58;;;23.60;81.70;;;;;;5092689;28;20031;-84
2021/06/12 10:56:01;;;;;;;2.67;2.47;;;23.60;82.50;;;;;;5092440;28;20027;-88
2021/06/12 10:58:36;;;;;;;2.67;2.45;;;23.60;81.00;;;;;;5075972;28;20110;-86
2021/06/12 11:01:16;;;;;;;2.80;2.50;;;23.70;78.60;;;;;;5092431;28;20028;-85
2021/06/12 11:06:48;;;;;;;2.72;2.30;;;23.60;79.00;;;;;;5093891;28;20123;-83
2021/06/12 11:09:14;;;;;;;4.15;2.50;;;23.70;80.10;;;;;;5092282;28;20040;-86
2021/06/12 11:11:46;;;;;;;6.28;2.60;;;23.70;81.00;;;;;;5093282;28;20031;-85
2021/06/12 11:14:25;;;;;;;3.25;2.97;;;23.70;81.80;;;;;;5093549;28;20020;-86
2021/06/12 11:20:04;;;;;;;2.75;2.53;;;23.80;81.70;;;;;;5093564;28;20028;-87
2021/06/12 11:22:32;;;;;;;3.90;2.70;;;23.90;82.10;;;;;;5091685;28;20067;-87
2021/06/12 11:25:11;;;;;;;4.15;2.83;;;24.00;81.60;;;;;;5092383;28;20020;-86
2021/06/12 11:27:42;;;;;;;4.40;2.72;;;24.10;81.30;;;;;;5092172;28;20726;-86
2021/06/12 11:30:12;;;;;;;2.67;2.47;;;24.00;81.20;;;;;;5093270;28;20031;-85
2021/06/12 11:32:38;;;;;;;;;;;24.10;80.30;;;;;;5093188;28;20466;-85
2021/06/12 11:35:06;;;;;;;3.08;2.40;;;24.10;80.60;;;;;;5095964;28;20022;-85
2021/06/12 11:37:49;;;;;;;3.28;2.97;;;24.10;80.20;;;;;;5097537;28;20059;-85
2021/06/12 11:40:21;;;;;;;3.60;3.10;;;24.10;81.60;;;;;;5097038;28;20059;-85
2021/06/12 11:42:51;;;;;;;4.65;2.70;;;24.20;80.50;;;;;;5096114;28;20028;-86
2021/06/12 11:45:20;;;;;;;3.13;2.83;;;24.20;80.10;;;;;;5071049;28;20029;-86
2021/06/12 11:47:47;;;;;;;2.90;2.60;;;24.30;80.40;;;;;;5057029;28;20033;-87
2021/06/12 11:50:13;;;;;;;2.92;2.70;;;24.70;79.10;;;;;;5071756;28;20497;-86
2021/06/12 11:52:41;;;;;;;2.83;2.63;;;25.80;77.00;;;;;;5072201;28;20029;-87
2021/06/12 11:55:14;;;;;;;4.93;2.10;;;27.50;73.30;;;;;;5071867;28;20067;-87
2021/06/12 11:57:45;;;;;;;2.50;2.30;;;29.30;65.60;;;;;;5072036;28;20021;-86
2021/06/12 12:00:31;;;;;;;3.60;2.50;;;30.60;61.80;;;;;;5071868;28;20068;-87
2021/06/12 12:03:23;;;;;;;2.13;2.03;;;32.00;57.70;;;;;;5056499;28;20356;-86
2021/06/12 12:05:51;;;;;;;2.08;1.80;;;32.50;55.80;;;;;;5055026;28;20041;-85
2021/06/12 12:08:22;;;;;;;2.53;2.33;;;33.60;53.90;;;;;;5071866;28;20032;-88
2021/06/12 12:10:56;;;;;;;2.60;2.20;;;33.80;50.20;;;;;;5071771;28;20060;-87
2021/06/12 12:13:39;;;;;;;2.40;2.20;;;34.70;51.30;;;;;;5071891;28;20025;-86
2021/06/12 12:16:28;;;;;;;2.15;2.00;;;34.90;48.70;;;;;;5070088;28;20039;-86
2021/06/12 12:19:02;;;;;;;3.50;2.37;;;35.70;47.10;;;;;;5075133;28;20056;-86
2021/06/12 12:21:37;;;;;;;2.40;2.20;;;35.50;45.90;;;;;;5058348;28;20276;-87
2021/06/12 12:24:14;;;;;;;2.15;2.05;;;34.50;46.50;;;;;;5074842;28;20417;-86
2021/06/12 12:26:57;;;;;;;2.83;2.10;;;34.80;47.30;;;;;;5074822;28;20057;-88
2021/06/12 12:29:29;;;;;;;2.40;2.20;;;35.10;45.80;;;;;;5074917;28;20115;-85
2021/06/12 12:31:56;;;;;;;3.35;2.17;;;35.80;47.90;;;;;;5074743;28;20078;-86
2021/06/12 12:34:38;;;;;;;2.20;2.10;;;35.80;46.80;;;;;;5074731;28;20104;-86
2021/06/12 12:37:07;;;;;;;3.45;2.25;;;35.60;45.40;;;;;;5076076;28;20355;-86
2021/06/12 12:39:37;;;;;;;;;;;35.00;46.40;;;;;;5076287;28;20059;-87
2021/06/12 12:42:03;;;;;;;2.60;2.50;;;34.40;46.70;;;;;;5074610;28;19908;-88
2021/06/12 12:44:30;;;;;;;2.80;2.30;;;32.60;48.40;;;;;;5075880;28;20032;-89
2021/06/12 12:46:56;;;;;;;2.88;2.45;;;31.60;50.10;;;;;;5075565;28;20036;-88
2021/06/12 12:49:24;;;;;;;2.55;2.08;;;31.50;51.00;;;;;;5074178;28;20028;-89
2021/06/12 12:51:56;;;;;;;2.65;2.33;;;32.10;49.40;;;;;;5074011;28;20089;-87
2021/06/12 12:54:23;;;;;;;3.92;2.22;;;32.00;50.10;;;;;;5075592;28;20024;-86
2021/06/12 12:56:52;;;;;;;4.55;2.60;;;32.60;49.70;;;;;;5075339;28;20047;-86
2021/06/12 12:59:44;;;;;;;3.92;2.50;;;32.20;49.90;;;;;;5074198;28;20039;-85
2021/06/12 13:02:15;;;;;;;2.40;2.30;;;32.70;49.20;;;;;;5073888;28;20032;-85
2021/06/12 13:04:43;;;;;;;3.05;2.40;;;33.20;48.40;;;;;;5073834;28;20025;-87
2021/06/12 13:07:23;;;;;;;4.40;2.90;;;33.40;47.80;;;;;;5074071;28;20029;-87
2021/06/12 13:09:58;;;;;;;2.90;2.70;;;32.10;48.60;;;;;;5057996;28;20052;-87
2021/06/12 13:12:25;;;;;;;3.10;2.90;;;31.00;50.90;;;;;;5073689;28;20474;-87
2021/06/12 13:15:10;;;;;;;6.18;2.83;;;31.00;51.10;;;;;;5073959;28;20059;-84
2021/06/12 13:17:40;;;;;;;3.85;3.55;;;30.50;50.70;;;;;;5057791;28;20029;-89
2021/06/12 13:20:17;;;;;;;2.67;2.47;;;30.10;53.60;;;;;;5057374;28;20477;-87